Time,TemperatureF,DewpointF,PressureIn,WindDirection,WindDirectionDegrees,WindSpeedMPH,WindSpeedGustMPH,Humidity,HourlyPrecipIn,Conditions,Clouds,dailyrainin,SoftwareType,DateUTC
2013-11-13 00:01:00,31.8,11.4,29.82,North,0,10.5,10.5,42,0.00,,,0.00,VWS V14.01,2013-11-13 05:01:00,
2013-11-13 00:02:00,31.8,11.4,29.82,NNE,22,14.8,14.8,42,0.00,,,0.00,VWS V14.01,2013-11-13 05:02:00,
2013-11-13 00:03:00,31.8,11.4,29.82,North,0,12.8,12.8,42,0.00,,,0.00,VWS V14.01,2013-11-13 05:03:00,
2013-11-13 00:08:00,31.8,11.4,29.82,North,0,7.4,7.4,42,0.00,,,0.00,VWS V14.01,2013-11-13 05:08:00,
2013-11-13 00:13:00,31.6,11.2,29.82,NNW,338,6.3,6.3,42,0.00,,,0.00,VWS V14.01,2013-11-13 05:13:00,
2013-11-13 00:18:00,31.6,11.2,29.79,North,0,5.8,5.8,42,0.00,,,0.00,VWS V14.01,2013-11-13 05:18:00,
2013-11-13 00:23:00,31.5,11.0,29.79,NNE,22,6.3,6.3,42,0.00,,,0.00,VWS V14.01,2013-11-13 05:23:00,
2013-11-13 00:28:00,31.5,11.0,29.79,NNW,338,4.3,4.3,42,0.00,,,0.00,VWS V14.01,2013-11-13 05:28:00,
2013-11-13 00:33:00,31.5,11.0,29.82,NNE,22,4.3,4.3,42,0.00,,,0.00,VWS V14.01,2013-11-13 05:33:00,
2013-11-13 00:38:00,31.5,11.0,29.82,NNE,22,3.4,3.4,42,0.00,,,0.00,VWS V14.01,2013-11-13 05:38:00,
2013-11-13 00:43:00,31.5,11.0,29.82,North,0,5.4,5.4,42,0.00,,,0.00,VWS V14.01,2013-11-13 05:43:00,
2013-11-13 00:48:00,31.5,11.0,29.82,NE,45,5.4,5.4,42,0.00,,,0.00,VWS V14.01,2013-11-13 05:48:00,
2013-11-13 00:53:00,31.5,11.0,29.82,NNE,22,3.6,3.6,42,0.00,,,0.00,VWS V14.01,2013-11-13 05:53:00,
2013-11-13 00:58:00,31.5,11.0,29.82,NNE,22,3.4,3.4,42,0.00,,,0.00,VWS V14.01,2013-11-13 05:58:00,
2013-11-13 01:03:00,31.5,11.0,29.82,NNE,22,0.9,0.9,42,0.00,,,0.00,VWS V14.01,2013-11-13 06:03:00,
2013-11-13 01:08:00,31.3,10.9,29.82,NNE,22,4.0,4.0,42,0.00,,,0.00,VWS V14.01,2013-11-13 06:08:00,
2013-11-13 01:14:00,31.3,10.9,29.82,NNE,22,2.9,2.9,42,0.00,,,0.00,VWS V14.01,2013-11-13 06:14:00,
2013-11-13 01:19:00,31.3,10.9,29.79,NNW,338,4.3,4.3,42,0.00,,,0.00,VWS V14.01,2013-11-13 06:19:00,
2013-11-13 01:24:00,31.3,10.9,29.79,NNW,338,3.1,3.1,42,0.00,,,0.00,VWS V14.01,2013-11-13 06:24:00,
2013-11-13 01:29:00,31.3,10.9,29.79,NNE,22,2.2,2.2,42,0.00,,,0.00,VWS V14.01,2013-11-13 06:29:00,
2013-11-13 01:34:00,31.6,11.2,29.82,NNE,22,3.1,3.1,42,0.00,,,0.00,VWS V14.01,2013-11-13 06:34:00,
2013-11-13 01:39:00,31.6,11.2,29.82,NNE,22,1.6,1.6,42,0.00,,,0.00,VWS V14.01,2013-11-13 06:39:00,
2013-11-13 01:44:00,31.8,11.9,29.82,NNE,22,0.0,0.0,43,0.00,,,0.00,VWS V14.01,2013-11-13 06:44:00,
2013-11-13 01:49:00,31.6,11.2,29.82,North,0,2.7,2.7,42,0.00,,,0.00,VWS V14.01,2013-11-13 06:49:00,
2013-11-13 01:54:00,31.6,11.7,29.82,NNW,338,2.0,2.0,43,0.00,,,0.00,VWS V14.01,2013-11-13 06:54:00,
2013-11-13 01:59:00,31.8,11.9,29.82,NNE,22,2.0,2.0,43,0.00,,,0.00,VWS V14.01,2013-11-13 06:59:00,
2013-11-13 02:04:00,32.0,12.1,29.82,NE,45,3.8,3.8,43,0.00,,,0.00,VWS V14.01,2013-11-13 07:04:00,
2013-11-13 02:09:00,32.0,12.1,29.82,NE,45,3.1,3.1,43,0.00,,,0.00,VWS V14.01,2013-11-13 07:09:00,
2013-11-13 02:14:00,32.0,12.1,29.82,NE,45,5.8,5.8,43,0.00,,,0.00,VWS V14.01,2013-11-13 07:14:00,
2013-11-13 02:19:00,31.8,11.9,29.82,NE,45,3.1,3.1,43,0.00,,,0.00,VWS V14.01,2013-11-13 07:19:00,
2013-11-13 02:24:00,31.8,11.9,29.82,NNE,22,4.3,4.3,43,0.00,,,0.00,VWS V14.01,2013-11-13 07:24:00,
2013-11-13 02:29:00,31.8,12.4,29.82,NNE,22,7.8,7.8,44,0.00,,,0.00,VWS V14.01,2013-11-13 07:29:00,
2013-11-13 02:34:00,31.6,12.2,29.82,NNE,22,10.1,10.1,44,0.00,,,0.00,VWS V14.01,2013-11-13 07:34:00,
2013-11-13 02:39:00,31.6,12.2,29.82,NNE,22,7.8,7.8,44,0.00,,,0.00,VWS V14.01,2013-11-13 07:39:00,
2013-11-13 02:44:00,31.6,12.2,29.82,NNE,22,5.6,5.6,44,0.00,,,0.00,VWS V14.01,2013-11-13 07:44:00,
2013-11-13 02:49:00,31.6,12.2,29.82,NNE,22,7.6,7.6,44,0.00,,,0.00,VWS V14.01,2013-11-13 07:49:00,
2013-11-13 02:54:00,31.6,12.2,29.82,NNE,22,4.9,4.9,44,0.00,,,0.00,VWS V14.01,2013-11-13 07:54:00,
2013-11-13 02:59:00,31.6,12.2,29.82,NNE,22,6.9,6.9,44,0.00,,,0.00,VWS V14.01,2013-11-13 07:59:00,
2013-11-13 03:04:00,31.8,12.4,29.82,NNW,338,5.8,5.8,44,0.00,,,0.00,VWS V14.01,2013-11-13 08:04:00,
2013-11-13 03:09:00,31.6,11.7,29.82,NNE,22,5.8,5.8,43,0.00,,,0.00,VWS V14.01,2013-11-13 08:09:00,
2013-11-13 03:14:00,31.6,12.2,29.82,NNE,22,4.3,4.3,44,0.00,,,0.00,VWS V14.01,2013-11-13 08:14:00,
2013-11-13 03:19:00,31.5,11.6,29.82,NNE,22,12.1,12.1,43,0.00,,,0.00,VWS V14.01,2013-11-13 08:19:00,
2013-11-13 03:24:00,31.3,11.4,29.82,NNE,22,8.1,8.1,43,0.00,,,0.00,VWS V14.01,2013-11-13 08:24:00,
2013-11-13 03:29:00,31.1,11.2,29.82,North,0,7.4,7.4,43,0.00,,,0.00,VWS V14.01,2013-11-13 08:29:00,
2013-11-13 03:34:00,31.1,10.7,29.82,NNE,22,6.0,6.0,42,0.00,,,0.00,VWS V14.01,2013-11-13 08:34:00,
2013-11-13 03:40:00,30.9,10.5,29.82,NNE,22,9.8,9.8,42,0.00,,,0.00,VWS V14.01,2013-11-13 08:40:00,
2013-11-13 03:45:00,30.9,10.5,29.82,North,0,6.3,6.3,42,0.00,,,0.00,VWS V14.01,2013-11-13 08:45:00,
2013-11-13 03:50:00,30.9,10.5,29.82,NNE,22,6.5,6.5,42,0.00,,,0.00,VWS V14.01,2013-11-13 08:50:00,
2013-11-13 03:55:00,30.7,10.4,29.82,NNE,22,10.3,10.3,42,0.00,,,0.00,VWS V14.01,2013-11-13 08:55:00,
2013-11-13 04:00:00,30.6,10.2,29.82,North,0,8.1,8.1,42,0.00,,,0.00,VWS V14.01,2013-11-13 09:00:00,
2013-11-13 04:05:00,30.4,9.5,29.82,North,0,13.4,13.4,41,0.00,,,0.00,VWS V14.01,2013-11-13 09:05:00,
2013-11-13 04:10:00,30.2,9.4,29.82,North,0,14.5,14.5,41,0.00,,,0.00,VWS V14.01,2013-11-13 09:10:00,
2013-11-13 04:15:00,30.2,9.4,29.82,NNE,22,13.2,13.2,41,0.00,,,0.00,VWS V14.01,2013-11-13 09:15:00,
2013-11-13 04:21:00,30.2,9.4,29.85,NNE,22,12.5,12.5,41,0.00,,,0.00,VWS V14.01,2013-11-13 09:21:00,
2013-11-13 04:26:00,30.2,9.4,29.85,NNE,22,10.3,10.3,41,0.00,,,0.00,VWS V14.01,2013-11-13 09:26:00,
2013-11-13 04:31:00,30.0,9.2,29.85,North,0,17.7,17.7,41,0.00,,,0.00,VWS V14.01,2013-11-13 09:31:00,
2013-11-13 04:36:00,30.2,9.4,29.85,North,0,12.5,12.5,41,0.00,,,0.00,VWS V14.01,2013-11-13 09:36:00,
2013-11-13 04:42:00,30.0,9.2,29.85,NNE,22,13.0,13.0,41,0.00,,,0.00,VWS V14.01,2013-11-13 09:42:00,
2013-11-13 04:47:00,30.0,9.2,29.85,NNW,338,12.3,12.3,41,0.00,,,0.00,VWS V14.01,2013-11-13 09:47:00,
2013-11-13 04:52:00,30.2,9.4,29.85,NNE,22,5.6,5.6,41,0.00,,,0.00,VWS V14.01,2013-11-13 09:52:00,
2013-11-13 04:57:00,30.2,9.4,29.85,NW,315,12.5,12.5,41,0.00,,,0.00,VWS V14.01,2013-11-13 09:57:00,
2013-11-13 05:02:00,30.2,9.4,29.85,North,0,8.5,8.5,41,0.00,,,0.00,VWS V14.01,2013-11-13 10:02:00,
2013-11-13 05:07:00,30.2,9.4,29.85,NNE,22,12.1,12.1,41,0.00,,,0.00,VWS V14.01,2013-11-13 10:07:00,
2013-11-13 05:12:00,30.2,9.4,29.85,NNE,22,12.5,12.5,41,0.00,,,0.00,VWS V14.01,2013-11-13 10:12:00,
2013-11-13 05:18:00,30.2,9.4,29.85,North,0,10.1,10.1,41,0.00,,,0.00,VWS V14.01,2013-11-13 10:18:00,
2013-11-13 05:23:00,30.2,9.4,29.85,NNE,22,7.8,7.8,41,0.00,,,0.00,VWS V14.01,2013-11-13 10:23:00,
2013-11-13 05:28:00,30.2,9.4,29.85,NNE,22,8.1,8.1,41,0.00,,,0.00,VWS V14.01,2013-11-13 10:28:00,
2013-11-13 05:33:00,30.2,9.9,29.85,North,0,10.1,10.1,42,0.00,,,0.00,VWS V14.01,2013-11-13 10:33:00,
2013-11-13 05:39:00,29.8,9.6,29.85,NNE,22,8.7,8.7,42,0.00,,,0.00,VWS V14.01,2013-11-13 10:39:00,
2013-11-13 05:44:00,29.5,9.2,29.85,NNE,22,7.6,7.6,42,0.00,,,0.00,VWS V14.01,2013-11-13 10:44:00,
2013-11-13 05:49:00,29.3,9.1,29.85,NNE,22,15.7,15.7,42,0.00,,,0.00,VWS V14.01,2013-11-13 10:49:00,
2013-11-13 05:54:00,29.3,8.5,29.85,NNE,22,13.4,13.4,41,0.00,,,0.00,VWS V14.01,2013-11-13 10:54:00,
2013-11-13 06:00:00,29.1,8.9,29.85,NNE,22,10.7,10.7,42,0.00,,,0.00,VWS V14.01,2013-11-13 11:00:00,
2013-11-13 06:05:00,29.1,8.9,29.85,North,0,6.5,6.5,42,0.00,,,0.00,VWS V14.01,2013-11-13 11:05:00,
2013-11-13 06:11:00,28.9,8.7,29.85,NNE,22,4.0,4.0,42,0.00,,,0.00,VWS V14.01,2013-11-13 11:11:00,
2013-11-13 06:16:00,28.8,8.6,29.85,North,0,7.4,7.4,42,0.00,,,0.00,VWS V14.01,2013-11-13 11:16:00,
2013-11-13 06:21:00,28.8,8.6,29.85,NNE,22,6.3,6.3,42,0.00,,,0.00,VWS V14.01,2013-11-13 11:21:00,
2013-11-13 06:26:00,28.6,8.4,29.85,NNW,338,11.2,11.2,42,0.00,,,0.00,VWS V14.01,2013-11-13 11:26:00,
2013-11-13 06:32:00,28.6,7.9,29.85,NNW,338,5.4,5.4,41,0.00,,,0.00,VWS V14.01,2013-11-13 11:32:00,
2013-11-13 06:38:00,28.6,7.9,29.85,NNW,338,3.8,3.8,41,0.00,,,0.00,VWS V14.01,2013-11-13 11:38:00,
2013-11-13 06:43:00,28.6,7.9,29.85,North,0,6.3,6.3,41,0.00,,,0.00,VWS V14.01,2013-11-13 11:43:00,
2013-11-13 06:49:00,28.6,7.9,29.88,NNW,338,6.5,6.5,41,0.00,,,0.00,VWS V14.01,2013-11-13 11:49:00,
2013-11-13 06:54:00,28.4,8.2,29.88,North,0,7.8,7.8,42,0.00,,,0.00,VWS V14.01,2013-11-13 11:54:00,
2013-11-13 07:00:00,28.4,8.2,29.88,NNW,338,6.0,6.0,42,0.00,,,0.00,VWS V14.01,2013-11-13 12:00:00,
2013-11-13 07:05:00,28.6,7.9,29.91,NNE,22,8.1,8.1,41,0.00,,,0.00,VWS V14.01,2013-11-13 12:05:00,
2013-11-13 07:10:00,28.6,7.9,29.91,NNW,338,3.6,3.6,41,0.00,,,0.00,VWS V14.01,2013-11-13 12:10:00,
2013-11-13 07:15:00,28.6,7.9,29.91,NW,315,3.4,3.4,41,0.00,,,0.00,VWS V14.01,2013-11-13 12:15:00,
2013-11-13 07:21:00,28.6,7.9,29.91,NNW,338,5.8,5.8,41,0.00,,,0.00,VWS V14.01,2013-11-13 12:21:00,
2013-11-13 07:26:00,28.6,7.9,29.91,NNW,338,5.8,5.8,41,0.00,,,0.00,VWS V14.01,2013-11-13 12:26:00,
2013-11-13 07:31:00,28.6,7.9,29.91,North,0,5.8,5.8,41,0.00,,,0.00,VWS V14.01,2013-11-13 12:31:00,
2013-11-13 07:36:00,28.8,8.0,29.88,NNE,22,5.4,5.4,41,0.00,,,0.00,VWS V14.01,2013-11-13 12:36:00,
2013-11-13 07:42:00,28.8,8.0,29.88,North,0,7.2,7.2,41,0.00,,,0.00,VWS V14.01,2013-11-13 12:42:00,
2013-11-13 07:48:00,28.9,8.7,29.91,NNW,338,6.0,6.0,42,0.00,,,0.00,VWS V14.01,2013-11-13 12:48:00,
2013-11-13 07:53:00,29.1,8.4,29.91,North,0,4.3,4.3,41,0.00,,,0.00,VWS V14.01,2013-11-13 12:53:00,
2013-11-13 07:59:00,29.3,8.5,29.91,NNE,22,4.9,4.9,41,0.00,,,0.00,VWS V14.01,2013-11-13 12:59:00,
2013-11-13 08:04:00,29.5,8.7,29.91,NW,315,4.3,4.3,41,0.00,,,0.00,VWS V14.01,2013-11-13 13:04:00,
2013-11-13 08:10:00,29.5,8.7,29.91,NNW,338,4.0,4.0,41,0.00,,,0.00,VWS V14.01,2013-11-13 13:10:00,
2013-11-13 08:15:00,29.5,8.7,29.91,NNW,338,6.3,6.3,41,0.00,,,0.00,VWS V14.01,2013-11-13 13:15:00,
2013-11-13 08:20:00,29.8,9.6,29.91,North,0,7.4,7.4,42,0.00,,,0.00,VWS V14.01,2013-11-13 13:20:00,
2013-11-13 08:26:00,30.0,9.2,29.91,NNW,338,4.0,4.0,41,0.00,,,0.00,VWS V14.01,2013-11-13 13:26:00,
2013-11-13 08:31:00,30.2,9.4,29.91,NNW,338,5.8,5.8,41,0.00,,,0.00,VWS V14.01,2013-11-13 13:31:00,
2013-11-13 08:36:00,30.2,9.9,29.91,North,0,5.4,5.4,42,0.00,,,0.00,VWS V14.01,2013-11-13 13:36:00,
2013-11-13 08:42:00,30.6,9.7,29.91,NW,315,1.6,1.6,41,0.00,,,0.00,VWS V14.01,2013-11-13 13:42:00,
2013-11-13 08:47:00,30.7,9.8,29.91,NW,315,5.6,5.6,41,0.00,,,0.00,VWS V14.01,2013-11-13 13:47:00,
2013-11-13 08:52:00,30.7,9.8,29.91,West,270,3.8,3.8,41,0.00,,,0.00,VWS V14.01,2013-11-13 13:52:00,
2013-11-13 08:58:00,31.1,10.2,29.91,NW,315,4.0,4.0,41,0.00,,,0.00,VWS V14.01,2013-11-13 13:58:00,
2013-11-13 09:03:00,31.1,10.2,29.91,NW,315,6.0,6.0,41,0.00,,,0.00,VWS V14.01,2013-11-13 14:03:00,
2013-11-13 09:08:00,31.3,10.3,29.91,NNW,338,4.0,4.0,41,0.00,,,0.00,VWS V14.01,2013-11-13 14:08:00,
2013-11-13 09:13:00,31.5,10.5,29.91,North,0,5.4,5.4,41,0.00,,,0.00,VWS V14.01,2013-11-13 14:13:00,
2013-11-13 09:18:00,31.6,10.6,29.91,North,0,7.4,7.4,41,0.00,,,0.00,VWS V14.01,2013-11-13 14:18:00,
2013-11-13 09:24:00,31.8,10.8,29.91,NNW,338,8.7,8.7,41,0.00,,,0.00,VWS V14.01,2013-11-13 14:24:00,
2013-11-13 09:29:00,32.2,11.1,29.91,NNE,22,10.5,10.5,41,0.00,,,0.00,VWS V14.01,2013-11-13 14:29:00,
2013-11-13 09:34:00,32.4,11.9,29.91,NNW,338,7.8,7.8,42,0.00,,,0.00,VWS V14.01,2013-11-13 14:34:00,
2013-11-13 09:39:00,32.5,12.0,29.91,NNE,22,6.5,6.5,42,0.00,,,0.00,VWS V14.01,2013-11-13 14:39:00,
2013-11-13 09:45:00,32.7,12.2,29.91,North,0,7.2,7.2,42,0.00,,,0.00,VWS V14.01,2013-11-13 14:45:00,
2013-11-13 09:50:00,32.9,12.3,29.91,NNE,22,8.1,8.1,42,0.00,,,0.00,VWS V14.01,2013-11-13 14:50:00,
2013-11-13 09:55:00,33.1,12.5,29.91,WNW,292,9.2,9.2,42,0.00,,,0.00,VWS V14.01,2013-11-13 14:55:00,
2013-11-13 10:00:00,33.1,12.5,29.91,NNE,22,12.5,12.5,42,0.00,,,0.00,VWS V14.01,2013-11-13 15:00:00,
2013-11-13 10:06:00,33.4,12.8,29.91,NNW,338,8.1,8.1,42,0.00,,,0.00,VWS V14.01,2013-11-13 15:06:00,
2013-11-13 10:11:00,33.6,13.0,29.91,NNE,22,17.5,17.5,42,0.00,,,0.00,VWS V14.01,2013-11-13 15:11:00,
2013-11-13 10:16:00,33.6,13.0,29.91,NNE,22,8.5,8.5,42,0.00,,,0.00,VWS V14.01,2013-11-13 15:16:00,
2013-11-13 10:21:00,33.8,12.6,29.91,NNE,22,10.5,10.5,41,0.00,,,0.00,VWS V14.01,2013-11-13 15:21:00,
2013-11-13 10:27:00,34.0,13.3,29.91,North,0,10.7,10.7,42,0.00,,,0.00,VWS V14.01,2013-11-13 15:27:00,
2013-11-13 10:32:00,34.3,13.6,29.91,NNW,338,6.0,6.0,42,0.00,,,0.00,VWS V14.01,2013-11-13 15:32:00,
2013-11-13 10:37:00,34.3,13.1,29.91,NNE,22,3.4,3.4,41,0.00,,,0.00,VWS V14.01,2013-11-13 15:37:00,
2013-11-13 10:42:00,34.5,13.8,29.91,NNE,22,6.0,6.0,42,0.00,,,0.00,VWS V14.01,2013-11-13 15:42:00,
2013-11-13 10:48:00,34.7,14.0,29.88,NNE,22,10.1,10.1,42,0.00,,,0.00,VWS V14.01,2013-11-13 15:48:00,
2013-11-13 10:54:00,34.9,14.1,29.88,North,0,12.3,12.3,42,0.00,,,0.00,VWS V14.01,2013-11-13 15:54:00,
2013-11-13 10:59:00,35.1,14.3,29.88,NNW,338,4.9,4.9,42,0.00,,,0.00,VWS V14.01,2013-11-13 15:59:00,
2013-11-13 11:05:00,35.1,13.8,29.88,NNW,338,8.5,8.5,41,0.00,,,0.00,VWS V14.01,2013-11-13 16:05:00,
2013-11-13 11:11:00,35.2,13.9,29.88,WNW,292,10.3,10.3,41,0.00,,,0.00,VWS V14.01,2013-11-13 16:11:00,
2013-11-13 11:16:00,35.6,14.2,29.88,West,270,10.1,10.1,41,0.00,,,0.00,VWS V14.01,2013-11-13 16:16:00,
2013-11-13 11:21:00,35.8,14.4,29.85,NNW,338,12.8,12.8,41,0.00,,,0.00,VWS V14.01,2013-11-13 16:21:00,
2013-11-13 11:27:00,36.1,14.7,29.85,North,0,8.5,8.5,41,0.00,,,0.00,VWS V14.01,2013-11-13 16:27:00,
2013-11-13 11:33:00,36.3,14.9,29.85,NNW,338,9.8,9.8,41,0.00,,,0.00,VWS V14.01,2013-11-13 16:33:00,
2013-11-13 11:38:00,36.3,14.9,29.85,NNW,338,10.3,10.3,41,0.00,,,0.00,VWS V14.01,2013-11-13 16:38:00,
2013-11-13 11:44:00,36.3,14.9,29.85,NNW,338,8.7,8.7,41,0.00,,,0.00,VWS V14.01,2013-11-13 16:44:00,
2013-11-13 11:49:00,36.3,14.9,29.85,NW,315,10.3,10.3,41,0.00,,,0.00,VWS V14.01,2013-11-13 16:49:00,
2013-11-13 11:55:00,36.3,14.9,29.85,North,0,8.7,8.7,41,0.00,,,0.00,VWS V14.01,2013-11-13 16:55:00,
2013-11-13 12:01:00,36.7,15.2,29.85,NW,315,6.0,6.0,41,0.00,,,0.00,VWS V14.01,2013-11-13 17:01:00,
2013-11-13 12:06:00,36.5,15.1,29.85,North,0,6.0,6.0,41,0.00,,,0.00,VWS V14.01,2013-11-13 17:06:00,
2013-11-13 12:12:00,36.7,15.2,29.85,NNW,338,9.8,9.8,41,0.00,,,0.00,VWS V14.01,2013-11-13 17:12:00,
2013-11-13 12:18:00,36.9,15.4,29.82,North,0,7.8,7.8,41,0.00,,,0.00,VWS V14.01,2013-11-13 17:18:00,
2013-11-13 12:23:00,37.0,15.5,29.82,North,0,9.4,9.4,41,0.00,,,0.00,VWS V14.01,2013-11-13 17:23:00,
2013-11-13 12:29:00,37.4,15.9,29.82,NNW,338,6.3,6.3,41,0.00,,,0.00,VWS V14.01,2013-11-13 17:29:00,
2013-11-13 12:34:00,37.4,15.9,29.85,NNE,22,6.0,6.0,41,0.00,,,0.00,VWS V14.01,2013-11-13 17:34:00,
2013-11-13 12:40:00,36.9,15.4,29.85,North,0,11.0,11.0,41,0.00,,,0.00,VWS V14.01,2013-11-13 17:40:00,
2013-11-13 12:45:00,36.9,14.8,29.85,NNE,22,5.4,5.4,40,0.00,,,0.00,VWS V14.01,2013-11-13 17:45:00,
2013-11-13 12:50:00,37.4,15.3,29.82,NNW,338,4.9,4.9,40,0.00,,,0.00,VWS V14.01,2013-11-13 17:50:00,
2013-11-13 12:55:00,37.6,16.0,29.82,NW,315,4.3,4.3,41,0.00,,,0.00,VWS V14.01,2013-11-13 17:55:00,
2013-11-13 13:00:00,37.8,16.2,29.82,NNW,338,9.8,9.8,41,0.00,,,0.00,VWS V14.01,2013-11-13 18:00:00,
2013-11-13 13:05:00,38.5,16.8,29.82,North,0,11.2,11.2,41,0.00,,,0.00,VWS V14.01,2013-11-13 18:05:00,
2013-11-13 13:11:00,38.3,16.7,29.82,NNW,338,7.6,7.6,41,0.00,,,0.00,VWS V14.01,2013-11-13 18:11:00,
2013-11-13 13:16:00,38.1,16.5,29.82,WNW,292,8.5,8.5,41,0.00,,,0.00,VWS V14.01,2013-11-13 18:16:00,
2013-11-13 13:21:00,38.1,16.5,29.82,WSW,248,9.6,9.6,41,0.00,,,0.00,VWS V14.01,2013-11-13 18:21:00,
2013-11-13 13:26:00,38.1,16.5,29.82,WNW,292,5.8,5.8,41,0.00,,,0.00,VWS V14.01,2013-11-13 18:26:00,
2013-11-13 13:31:00,38.3,16.7,29.82,West,270,12.1,12.1,41,0.00,,,0.00,VWS V14.01,2013-11-13 18:31:00,
2013-11-13 13:36:00,38.3,16.1,29.82,NNW,338,10.7,10.7,40,0.00,,,0.00,VWS V14.01,2013-11-13 18:36:00,
2013-11-13 13:41:00,38.1,15.9,29.82,North,0,7.6,7.6,40,0.00,,,0.00,VWS V14.01,2013-11-13 18:41:00,
2013-11-13 13:47:00,37.9,15.8,29.82,North,0,11.0,11.0,40,0.00,,,0.00,VWS V14.01,2013-11-13 18:47:00,
2013-11-13 13:52:00,37.9,16.4,29.82,NNW,338,8.1,8.1,41,0.00,,,0.00,VWS V14.01,2013-11-13 18:52:00,
2013-11-13 13:57:00,38.1,15.9,29.82,NNW,338,6.5,6.5,40,0.00,,,0.00,VWS V14.01,2013-11-13 18:57:00,
2013-11-13 14:02:00,38.1,15.9,29.82,WNW,292,6.3,6.3,40,0.00,,,0.00,VWS V14.01,2013-11-13 19:02:00,
2013-11-13 14:07:00,38.1,15.9,29.82,North,0,7.6,7.6,40,0.00,,,0.00,VWS V14.01,2013-11-13 19:07:00,
2013-11-13 14:12:00,38.1,15.9,29.82,NW,315,8.5,8.5,40,0.00,,,0.00,VWS V14.01,2013-11-13 19:12:00,
2013-11-13 14:17:00,37.9,15.8,29.82,NW,315,5.4,5.4,40,0.00,,,0.00,VWS V14.01,2013-11-13 19:17:00,
2013-11-13 14:22:00,37.9,15.8,29.79,NNE,22,5.4,5.4,40,0.00,,,0.00,VWS V14.01,2013-11-13 19:22:00,
2013-11-13 14:27:00,38.1,15.9,29.79,North,0,9.8,9.8,40,0.00,,,0.00,VWS V14.01,2013-11-13 19:27:00,
2013-11-13 14:33:00,38.5,16.3,29.79,West,270,9.8,9.8,40,0.00,,,0.00,VWS V14.01,2013-11-13 19:33:00,
2013-11-13 14:38:00,38.5,16.3,29.79,NW,315,6.0,6.0,40,0.00,,,0.00,VWS V14.01,2013-11-13 19:38:00,
2013-11-13 14:43:00,38.5,16.3,29.79,WNW,292,4.9,4.9,40,0.00,,,0.00,VWS V14.01,2013-11-13 19:43:00,
2013-11-13 14:48:00,38.1,15.9,29.79,NNW,338,4.9,4.9,40,0.00,,,0.00,VWS V14.01,2013-11-13 19:48:00,
2013-11-13 14:53:00,38.1,15.9,29.79,NW,315,4.9,4.9,40,0.00,,,0.00,VWS V14.01,2013-11-13 19:53:00,
2013-11-13 14:58:00,38.1,15.9,29.79,WNW,292,4.0,4.0,40,0.00,,,0.00,VWS V14.01,2013-11-13 19:58:00,
2013-11-13 15:03:00,38.3,16.1,29.79,WNW,292,5.6,5.6,40,0.00,,,0.00,VWS V14.01,2013-11-13 20:03:00,
2013-11-13 15:08:00,38.8,16.6,29.79,WNW,292,8.5,8.5,40,0.00,,,0.00,VWS V14.01,2013-11-13 20:08:00,
2013-11-13 15:13:00,39.2,16.9,29.79,WNW,292,4.9,4.9,40,0.00,,,0.00,VWS V14.01,2013-11-13 20:13:00,
2013-11-13 15:19:00,39.2,16.9,29.76,NNW,338,4.3,4.3,40,0.00,,,0.00,VWS V14.01,2013-11-13 20:19:00,
2013-11-13 15:24:00,39.2,16.9,29.76,NW,315,8.5,8.5,40,0.00,,,0.00,VWS V14.01,2013-11-13 20:24:00,
2013-11-13 15:29:00,39.2,16.9,29.76,WNW,292,5.6,5.6,40,0.00,,,0.00,VWS V14.01,2013-11-13 20:29:00,
2013-11-13 15:34:00,39.0,16.8,29.76,WNW,292,8.5,8.5,40,0.00,,,0.00,VWS V14.01,2013-11-13 20:34:00,
2013-11-13 15:40:00,38.8,16.6,29.76,WSW,248,7.6,7.6,40,0.00,,,0.00,VWS V14.01,2013-11-13 20:40:00,
2013-11-13 15:46:00,38.7,16.4,29.76,WNW,292,5.4,5.4,40,0.00,,,0.00,VWS V14.01,2013-11-13 20:46:00,
2013-11-13 15:51:00,38.7,16.4,29.79,NW,315,4.3,4.3,40,0.00,,,0.00,VWS V14.01,2013-11-13 20:51:00,
2013-11-13 15:56:00,38.5,16.3,29.79,WNW,292,2.9,2.9,40,0.00,,,0.00,VWS V14.01,2013-11-13 20:56:00,
2013-11-13 16:01:00,38.5,16.3,29.79,NNW,338,7.6,7.6,40,0.00,,,0.00,VWS V14.01,2013-11-13 21:01:00,
2013-11-13 16:06:00,38.3,16.1,29.79,NW,315,5.4,5.4,40,0.00,,,0.00,VWS V14.01,2013-11-13 21:06:00,
2013-11-13 16:12:00,38.3,16.1,29.79,WNW,292,3.6,3.6,40,0.00,,,0.00,VWS V14.01,2013-11-13 21:12:00,
2013-11-13 16:17:00,38.1,15.9,29.79,North,0,4.0,4.0,40,0.00,,,0.00,VWS V14.01,2013-11-13 21:17:00,
2013-11-13 16:22:00,37.9,15.8,29.79,WNW,292,6.3,6.3,40,0.00,,,0.00,VWS V14.01,2013-11-13 21:22:00,
2013-11-13 16:27:00,37.9,15.8,29.79,WNW,292,2.9,2.9,40,0.00,,,0.00,VWS V14.01,2013-11-13 21:27:00,
2013-11-13 16:32:00,37.8,15.6,29.79,WNW,292,2.5,2.5,40,0.00,,,0.00,VWS V14.01,2013-11-13 21:32:00,
2013-11-13 16:38:00,37.6,15.5,29.79,West,270,3.8,3.8,40,0.00,,,0.00,VWS V14.01,2013-11-13 21:38:00,
2013-11-13 16:43:00,37.6,15.5,29.79,WSW,248,2.5,2.5,40,0.00,,,0.00,VWS V14.01,2013-11-13 21:43:00,
2013-11-13 16:48:00,37.4,15.3,29.79,WSW,248,1.3,1.3,40,0.00,,,0.00,VWS V14.01,2013-11-13 21:48:00,
2013-11-13 16:53:00,37.0,15.5,29.79,WSW,248,1.6,1.6,41,0.00,,,0.00,VWS V14.01,2013-11-13 21:53:00,
2013-11-13 16:58:00,36.7,15.2,29.79,WSW,248,4.9,4.9,41,0.00,,,0.00,VWS V14.01,2013-11-13 21:58:00,
2013-11-13 17:04:00,36.5,15.1,29.76,WSW,248,5.6,5.6,41,0.00,,,0.00,VWS V14.01,2013-11-13 22:04:00,
2013-11-13 17:09:00,36.3,14.9,29.76,West,270,2.9,2.9,41,0.00,,,0.00,VWS V14.01,2013-11-13 22:09:00,
2013-11-13 17:14:00,36.1,14.7,29.76,WSW,248,2.0,2.0,41,0.00,,,0.00,VWS V14.01,2013-11-13 22:14:00,
2013-11-13 17:19:00,36.1,14.7,29.76,SSW,202,1.1,1.1,41,0.00,,,0.00,VWS V14.01,2013-11-13 22:19:00,
2013-11-13 17:24:00,35.8,14.9,29.76,SSW,202,0.0,0.0,42,0.00,,,0.00,VWS V14.01,2013-11-13 22:24:00,
2013-11-13 17:29:00,35.6,14.8,29.76,SSW,202,0.0,0.0,42,0.00,,,0.00,VWS V14.01,2013-11-13 22:29:00,
2013-11-13 17:34:00,35.4,14.6,29.79,SSW,202,0.0,0.0,42,0.00,,,0.00,VWS V14.01,2013-11-13 22:34:00,
2013-11-13 17:39:00,35.1,14.8,29.79,WSW,248,0.0,0.0,43,0.00,,,0.00,VWS V14.01,2013-11-13 22:39:00,
2013-11-13 17:44:00,34.9,14.7,29.79,WSW,248,1.3,1.3,43,0.00,,,0.00,VWS V14.01,2013-11-13 22:44:00,
2013-11-13 17:50:00,34.7,14.5,29.79,WSW,248,2.0,2.0,43,0.00,,,0.00,VWS V14.01,2013-11-13 22:50:00,
2013-11-13 17:55:00,34.7,14.5,29.79,WSW,248,2.7,2.7,43,0.00,,,0.00,VWS V14.01,2013-11-13 22:55:00,
2013-11-13 18:00:00,34.5,14.3,29.79,WSW,248,2.0,2.0,43,0.00,,,0.00,VWS V14.01,2013-11-13 23:00:00,
2013-11-13 18:05:00,34.5,14.3,29.79,WSW,248,4.3,4.3,43,0.00,,,0.00,VWS V14.01,2013-11-13 23:05:00,
2013-11-13 18:10:00,34.5,14.3,29.79,SSW,202,2.9,2.9,43,0.00,,,0.00,VWS V14.01,2013-11-13 23:10:00,
2013-11-13 18:15:00,34.5,14.3,29.79,WSW,248,4.0,4.0,43,0.00,,,0.00,VWS V14.01,2013-11-13 23:15:00,
2013-11-13 18:20:00,34.5,14.3,29.79,WSW,248,2.5,2.5,43,0.00,,,0.00,VWS V14.01,2013-11-13 23:20:00,
2013-11-13 18:25:00,34.3,14.2,29.79,SW,225,3.8,3.8,43,0.00,,,0.00,VWS V14.01,2013-11-13 23:25:00,
2013-11-13 18:30:00,34.3,14.2,29.79,WSW,248,5.4,5.4,43,0.00,,,0.00,VWS V14.01,2013-11-13 23:30:00,
2013-11-13 18:35:00,34.3,14.2,29.79,WSW,248,2.7,2.7,43,0.00,,,0.00,VWS V14.01,2013-11-13 23:35:00,
2013-11-13 18:40:00,34.5,14.3,29.79,SW,225,3.1,3.1,43,0.00,,,0.00,VWS V14.01,2013-11-13 23:40:00,
2013-11-13 18:46:00,34.5,14.3,29.79,WSW,248,4.0,4.0,43,0.00,,,0.00,VWS V14.01,2013-11-13 23:46:00,
2013-11-13 18:52:00,34.3,14.2,29.79,WSW,248,2.7,2.7,43,0.00,,,0.00,VWS V14.01,2013-11-13 23:52:00,
2013-11-13 18:57:00,34.3,14.2,29.79,WSW,248,3.4,3.4,43,0.00,,,0.00,VWS V14.01,2013-11-13 23:57:00,
2013-11-13 19:02:00,34.3,14.2,29.79,South,180,1.1,1.1,43,0.00,,,0.00,VWS V14.01,2013-11-14 00:02:00,
2013-11-13 19:07:00,34.0,13.9,29.79,SSW,202,0.0,0.0,43,0.00,,,0.00,VWS V14.01,2013-11-14 00:07:00,
2013-11-13 19:12:00,34.0,13.9,29.79,WSW,248,1.3,1.3,43,0.00,,,0.00,VWS V14.01,2013-11-14 00:12:00,
2013-11-13 19:18:00,34.0,13.9,29.79,WSW,248,2.0,2.0,43,0.00,,,0.00,VWS V14.01,2013-11-14 00:18:00,
2013-11-13 19:23:00,34.2,14.0,29.79,SSW,202,1.3,1.3,43,0.00,,,0.00,VWS V14.01,2013-11-14 00:23:00,
2013-11-13 19:28:00,34.0,13.9,29.79,SSW,202,1.1,1.1,43,0.00,,,0.00,VWS V14.01,2013-11-14 00:28:00,
2013-11-13 19:33:00,34.0,13.9,29.79,WSW,248,3.6,3.6,43,0.00,,,0.00,VWS V14.01,2013-11-14 00:33:00,
2013-11-13 19:38:00,34.0,13.9,29.79,WSW,248,2.7,2.7,43,0.00,,,0.00,VWS V14.01,2013-11-14 00:38:00,
2013-11-13 19:43:00,34.0,13.9,29.79,WSW,248,5.8,5.8,43,0.00,,,0.00,VWS V14.01,2013-11-14 00:43:00,
2013-11-13 19:49:00,34.2,14.0,29.79,South,180,2.5,2.5,43,0.00,,,0.00,VWS V14.01,2013-11-14 00:49:00,
2013-11-13 19:54:00,34.0,14.4,29.79,WSW,248,5.4,5.4,44,0.00,,,0.00,VWS V14.01,2013-11-14 00:54:00,
2013-11-13 20:00:00,34.0,14.4,29.79,SSW,202,2.0,2.0,44,0.00,,,0.00,VWS V14.01,2013-11-14 01:00:00,
2013-11-13 20:05:00,34.0,14.4,29.79,SSW,202,3.1,3.1,44,0.00,,,0.00,VWS V14.01,2013-11-14 01:05:00,
2013-11-13 20:10:00,34.2,14.5,29.79,SW,225,2.2,2.2,44,0.00,,,0.00,VWS V14.01,2013-11-14 01:10:00,
2013-11-13 20:15:00,34.2,14.5,29.79,WNW,292,0.0,0.0,44,0.00,,,0.00,VWS V14.01,2013-11-14 01:15:00,
2013-11-13 20:21:00,34.2,14.5,29.76,SSW,202,1.3,1.3,44,0.00,,,0.00,VWS V14.01,2013-11-14 01:21:00,
2013-11-13 20:26:00,34.2,14.0,29.76,WSW,248,0.9,0.9,43,0.00,,,0.00,VWS V14.01,2013-11-14 01:26:00,
2013-11-13 20:31:00,34.0,13.9,29.76,WSW,248,5.8,5.8,43,0.00,,,0.00,VWS V14.01,2013-11-14 01:31:00,
2013-11-13 20:36:00,34.0,13.9,29.79,WSW,248,4.7,4.7,43,0.00,,,0.00,VWS V14.01,2013-11-14 01:36:00,
2013-11-13 20:42:00,34.0,13.9,29.79,SW,225,3.6,3.6,43,0.00,,,0.00,VWS V14.01,2013-11-14 01:42:00,
2013-11-13 20:47:00,34.0,13.9,29.79,WSW,248,2.7,2.7,43,0.00,,,0.00,VWS V14.01,2013-11-14 01:47:00,
2013-11-13 20:52:00,34.0,13.9,29.79,SSW,202,1.3,1.3,43,0.00,,,0.00,VWS V14.01,2013-11-14 01:52:00,
2013-11-13 20:57:00,34.2,14.0,29.79,South,180,4.0,4.0,43,0.00,,,0.00,VWS V14.01,2013-11-14 01:57:00,
2013-11-13 21:02:00,34.2,14.0,29.79,SSW,202,3.6,3.6,43,0.00,,,0.00,VWS V14.01,2013-11-14 02:02:00,
2013-11-13 21:07:00,34.2,14.0,29.79,WSW,248,4.0,4.0,43,0.00,,,0.00,VWS V14.01,2013-11-14 02:07:00,
2013-11-13 21:13:00,34.2,14.0,29.79,West,270,5.4,5.4,43,0.00,,,0.00,VWS V14.01,2013-11-14 02:13:00,
2013-11-13 21:18:00,34.2,14.0,29.79,WNW,292,3.4,3.4,43,0.00,,,0.00,VWS V14.01,2013-11-14 02:18:00,
2013-11-13 21:24:00,34.3,14.2,29.79,SW,225,5.6,5.6,43,0.00,,,0.00,VWS V14.01,2013-11-14 02:24:00,
2013-11-13 21:29:00,34.3,14.2,29.79,South,180,4.9,4.9,43,0.00,,,0.00,VWS V14.01,2013-11-14 02:29:00,
2013-11-13 21:34:00,34.3,14.2,29.79,South,180,4.3,4.3,43,0.00,,,0.00,VWS V14.01,2013-11-14 02:34:00,
2013-11-13 21:39:00,34.3,14.2,29.79,WSW,248,2.7,2.7,43,0.00,,,0.00,VWS V14.01,2013-11-14 02:39:00,
2013-11-13 21:45:00,34.2,14.0,29.79,WSW,248,2.5,2.5,43,0.00,,,0.00,VWS V14.01,2013-11-14 02:45:00,
2013-11-13 21:50:00,34.2,14.0,29.79,West,270,2.9,2.9,43,0.00,,,0.00,VWS V14.01,2013-11-14 02:50:00,
2013-11-13 21:55:00,34.0,13.9,29.79,WSW,248,3.8,3.8,43,0.00,,,0.00,VWS V14.01,2013-11-14 02:55:00,
2013-11-13 22:01:00,34.0,13.9,29.79,WSW,248,3.1,3.1,43,0.00,,,0.00,VWS V14.01,2013-11-14 03:01:00,
2013-11-13 22:06:00,34.0,13.9,29.76,SW,225,6.3,6.3,43,0.00,,,0.00,VWS V14.01,2013-11-14 03:06:00,
2013-11-13 22:12:00,34.0,13.9,29.76,SSW,202,4.9,4.9,43,0.00,,,0.00,VWS V14.01,2013-11-14 03:12:00,
2013-11-13 22:17:00,34.0,13.9,29.76,SW,225,2.9,2.9,43,0.00,,,0.00,VWS V14.01,2013-11-14 03:17:00,
2013-11-13 22:23:00,34.0,13.9,29.79,WSW,248,5.8,5.8,43,0.00,,,0.00,VWS V14.01,2013-11-14 03:23:00,
2013-11-13 22:28:00,34.0,13.9,29.79,WSW,248,4.0,4.0,43,0.00,,,0.00,VWS V14.01,2013-11-14 03:28:00,
2013-11-13 22:34:00,34.0,13.9,29.76,WSW,248,6.5,6.5,43,0.00,,,0.00,VWS V14.01,2013-11-14 03:34:00,
2013-11-13 22:39:00,34.0,13.9,29.76,West,270,4.3,4.3,43,0.00,,,0.00,VWS V14.01,2013-11-14 03:39:00,
2013-11-13 22:44:00,34.0,13.9,29.76,West,270,3.8,3.8,43,0.00,,,0.00,VWS V14.01,2013-11-14 03:44:00,
2013-11-13 22:49:00,34.0,13.9,29.76,WSW,248,3.6,3.6,43,0.00,,,0.00,VWS V14.01,2013-11-14 03:49:00,
2013-11-13 22:55:00,34.0,13.9,29.76,WSW,248,5.8,5.8,43,0.00,,,0.00,VWS V14.01,2013-11-14 03:55:00,
2013-11-13 23:01:00,33.8,13.7,29.76,WSW,248,4.3,4.3,43,0.00,,,0.00,VWS V14.01,2013-11-14 04:01:00,
2013-11-13 23:06:00,33.8,13.7,29.76,SSW,202,4.7,4.7,43,0.00,,,0.00,VWS V14.01,2013-11-14 04:06:00,
2013-11-13 23:12:00,33.6,14.1,29.76,WSW,248,4.7,4.7,44,0.00,,,0.00,VWS V14.01,2013-11-14 04:12:00,
2013-11-13 23:17:00,33.6,14.1,29.76,SSW,202,2.2,2.2,44,0.00,,,0.00,VWS V14.01,2013-11-14 04:17:00,
2013-11-13 23:23:00,33.4,13.9,29.76,WSW,248,1.6,1.6,44,0.00,,,0.00,VWS V14.01,2013-11-14 04:23:00,
2013-11-13 23:29:00,33.3,14.2,29.76,WSW,248,1.6,1.6,45,0.00,,,0.00,VWS V14.01,2013-11-14 04:29:00,
2013-11-13 23:34:00,33.3,13.7,29.74,SSW,202,2.0,2.0,44,0.00,,,0.00,VWS V14.01,2013-11-14 04:34:00,
2013-11-13 23:40:00,33.3,13.7,29.74,WSW,248,1.3,1.3,44,0.00,,,0.00,VWS V14.01,2013-11-14 04:40:00,
2013-11-13 23:45:00,33.3,14.2,29.74,SSW,202,3.6,3.6,45,0.00,,,0.00,VWS V14.01,2013-11-14 04:45:00,
2013-11-13 23:51:00,33.1,13.6,29.74,SSW,202,2.0,2.0,44,0.00,,,0.00,VWS V14.01,2013-11-14 04:51:00,
2013-11-13 23:57:00,33.1,14.1,29.74,SSW,202,3.1,3.1,45,0.00,,,0.00,VWS V14.01,2013-11-14 04:57:00,